sensor_id;sensor_type;location;lat;lon;timestamp;pressure;altitude;pressure_sealevel;temperature;humidity
51468;BME280;37545;45.302;-122.946;2022-11-27T00:01:35;102339.69;;;9.42;96.13
51468;BME280;37545;45.302;-122.946;2022-11-27T00:04:04;102340.84;;;9.33;97.98
51468;BME280;37545;45.302;-122.946;2022-11-27T00:06:33;102346.50;;;9.27;98.31
51468;BME280;37545;45.302;-122.946;2022-11-27T00:09:04;102346.63;;;9.29;97.19
51468;BME280;37545;45.302;-122.946;2022-11-27T00:11:33;102334.59;;;9.29;96.46
51468;BME280;37545;45.302;-122.946;2022-11-27T00:14:06;102340.34;;;9.25;97.57
51468;BME280;37545;45.302;-122.946;2022-11-27T00:16:35;102327.88;;;9.18;97.94
51468;BME280;37545;45.302;-122.946;2022-11-27T00:19:04;102321.66;;;9.14;98.94
51468;BME280;37545;45.302;-122.946;2022-11-27T00:21:33;102324.84;;;9.10;99.81
51468;BME280;37545;45.302;-122.946;2022-11-27T00:24:06;102320.47;;;9.09;100.00
51468;BME280;37545;45.302;-122.946;2022-11-27T00:26:35;102313.63;;;9.10;100.00
51468;BME280;37545;45.302;-122.946;2022-11-27T00:29:05;102314.41;;;9.09;99.79
51468;BME280;37545;45.302;-122.946;2022-11-27T00:31:35;102308.09;;;9.04;100.00
51468;BME280;37545;45.302;-122.946;2022-11-27T00:34:05;102310.56;;;9.02;100.00
51468;BME280;37545;45.302;-122.946;2022-11-27T00:36:34;102323.56;;;9.04;100.00
51468;BME280;37545;45.302;-122.946;2022-11-27T00:39:04;102320.19;;;9.05;100.00
51468;BME280;37545;45.302;-122.946;2022-11-27T00:41:33;102324.56;;;9.06;100.00
51468;BME280;37545;45.302;-122.946;2022-11-27T00:44:02;102323.56;;;9.04;100.00
51468;BME280;37545;45.302;-122.946;2022-11-27T00:46:33;102310.91;;;8.93;99.44
51468;BME280;37545;45.302;-122.946;2022-11-27T00:49:03;102306.56;;;8.79;99.47
51468;BME280;37545;45.302;-122.946;2022-11-27T00:51:32;102306.22;;;8.73;100.00
51468;BME280;37545;45.302;-122.946;2022-11-27T00:54:02;102321.00;;;8.75;100.00
51468;BME280;37545;45.302;-122.946;2022-11-27T00:56:32;102321.88;;;8.76;100.00
51468;BME280;37545;45.302;-122.946;2022-11-27T00:59:01;102333.28;;;8.79;100.00
51468;BME280;37545;45.302;-122.946;2022-11-27T01:01:33;102329.91;;;8.80;100.00
51468;BME280;37545;45.302;-122.946;2022-11-27T01:04:02;102332.59;;;8.82;100.00
51468;BME280;37545;45.302;-122.946;2022-11-27T01:06:32;102328.31;;;8.83;100.00
51468;BME280;37545;45.302;-122.946;2022-11-27T01:09:00;102314.25;;;8.77;100.00
51468;BME280;37545;45.302;-122.946;2022-11-27T01:11:30;102315.50;;;8.84;100.00
51468;BME280;37545;45.302;-122.946;2022-11-27T01:14:01;102308.38;;;8.80;100.00
51468;BME280;37545;45.302;-122.946;2022-11-27T01:16:32;102303.53;;;8.71;100.00
51468;BME280;37545;45.302;-122.946;2022-11-27T01:19:04;102304.84;;;8.65;100.00
51468;BME280;37545;45.302;-122.946;2022-11-27T01:21:35;102302.09;;;8.62;100.00
51468;BME280;37545;45.302;-122.946;2022-11-27T01:24:05;102300.50;;;8.64;100.00
51468;BME280;37545;45.302;-122.946;2022-11-27T01:26:34;102297.09;;;8.65;100.00
51468;BME280;37545;45.302;-122.946;2022-11-27T01:29:03;102295.13;;;8.60;100.00
51468;BME280;37545;45.302;-122.946;2022-11-27T01:31:34;102292.47;;;8.59;100.00
51468;BME280;37545;45.302;-122.946;2022-11-27T01:34:07;102296.91;;;8.62;100.00
51468;BME280;37545;45.302;-122.946;2022-11-27T01:36:40;102298.00;;;8.65;100.00
51468;BME280;37545;45.302;-122.946;2022-11-27T01:39:13;102298.69;;;8.63;100.00
51468;BME280;37545;45.302;-122.946;2022-11-27T01:41:42;102289.06;;;8.60;100.00
51468;BME280;37545;45.302;-122.946;2022-11-27T01:44:49;102272.50;;;8.56;100.00
51468;BME280;37545;45.302;-122.946;2022-11-27T01:47:29;102263.00;;;8.55;100.00
51468;BME280;37545;45.302;-122.946;2022-11-27T01:50:05;102278.47;;;8.55;100.00
51468;BME280;37545;45.302;-122.946;2022-11-27T01:52:39;102261.91;;;8.52;100.00
51468;BME280;37545;45.302;-122.946;2022-11-27T01:55:12;102256.44;;;8.47;100.00
51468;BME280;37545;45.302;-122.946;2022-11-27T01:57:47;102253.09;;;8.48;100.00
51468;BME280;37545;45.302;-122.946;2022-11-27T02:00:18;102251.28;;;8.47;100.00
51468;BME280;37545;45.302;-122.946;2022-11-27T02:02:49;102257.44;;;8.49;100.00
51468;BME280;37545;45.302;-122.946;2022-11-27T02:05:20;102263.59;;;8.51;100.00
51468;BME280;37545;45.302;-122.946;2022-11-27T02:07:50;102261.22;;;8.54;100.00
51468;BME280;37545;45.302;-122.946;2022-11-27T02:10:20;102255.25;;;8.55;100.00
51468;BME280;37545;45.302;-122.946;2022-11-27T02:12:55;102238.88;;;8.55;100.00
51468;BME280;37545;45.302;-122.946;2022-11-27T02:15:32;102233.72;;;8.55;100.00
51468;BME280;37545;45.302;-122.946;2022-11-27T02:18:08;102222.25;;;8.50;100.00
51468;BME280;37545;45.302;-122.946;2022-11-27T02:20:47;102226.31;;;8.46;100.00
51468;BME280;37545;45.302;-122.946;2022-11-27T02:24:00;102217.69;;;8.46;100.00
51468;BME280;37545;45.302;-122.946;2022-11-27T02:26:56;102210.03;;;8.47;100.00
51468;BME280;37545;45.302;-122.946;2022-11-27T02:29:31;102201.28;;;8.45;100.00
51468;BME280;37545;45.302;-122.946;2022-11-27T02:32:07;102182.28;;;8.43;100.00
51468;BME280;37545;45.302;-122.946;2022-11-27T02:34:41;102163.09;;;8.39;100.00
51468;BME280;37545;45.302;-122.946;2022-11-27T02:37:13;102153.03;;;8.29;100.00
51468;BME280;37545;45.302;-122.946;2022-11-27T02:39:48;102163.75;;;8.22;100.00
51468;BME280;37545;45.302;-122.946;2022-11-27T02:42:20;102154.25;;;8.21;100.00
51468;BME280;37545;45.302;-122.946;2022-11-27T02:45:01;102157.69;;;8.22;100.00
51468;BME280;37545;45.302;-122.946;2022-11-27T02:47:30;102168.22;;;8.25;100.00
51468;BME280;37545;45.302;-122.946;2022-11-27T02:50:01;102193.22;;;8.26;100.00
51468;BME280;37545;45.302;-122.946;2022-11-27T02:52:31;102197.56;;;8.27;100.00
51468;BME280;37545;45.302;-122.946;2022-11-27T02:55:03;102176.75;;;8.24;100.00
51468;BME280;37545;45.302;-122.946;2022-11-27T02:57:32;102184.19;;;8.19;100.00
51468;BME280;37545;45.302;-122.946;2022-11-27T03:00:18;102184.38;;;8.22;100.00
51468;BME280;37545;45.302;-122.946;2022-11-27T03:02:50;102186.28;;;8.25;100.00
51468;BME280;37545;45.302;-122.946;2022-11-27T03:05:22;102182.88;;;8.26;100.00
51468;BME280;37545;45.302;-122.946;2022-11-27T03:07:55;102175.16;;;8.26;100.00
51468;BME280;37545;45.302;-122.946;2022-11-27T03:10:30;102169.19;;;8.27;100.00
51468;BME280;37545;45.302;-122.946;2022-11-27T03:13:02;102182.19;;;8.28;100.00
51468;BME280;37545;45.302;-122.946;2022-11-27T03:15:39;102176.13;;;8.28;100.00
51468;BME280;37545;45.302;-122.946;2022-11-27T03:18:20;102167.03;;;8.19;100.00
51468;BME280;37545;45.302;-122.946;2022-11-27T03:20:55;102157.94;;;8.11;100.00
51468;BME280;37545;45.302;-122.946;2022-11-27T03:23:28;102153.09;;;8.03;100.00
51468;BME280;37545;45.302;-122.946;2022-11-27T03:25:56;102147.56;;;7.96;100.00
51468;BME280;37545;45.302;-122.946;2022-11-27T03:28:26;102145.59;;;7.92;100.00
51468;BME280;37545;45.302;-122.946;2022-11-27T03:30:57;102143.63;;;7.88;100.00
51468;BME280;37545;45.302;-122.946;2022-11-27T03:33:26;102138.25;;;7.85;100.00
51468;BME280;37545;45.302;-122.946;2022-11-27T03:35:55;102146.91;;;7.86;100.00
51468;BME280;37545;45.302;-122.946;2022-11-27T03:38:24;102155.81;;;7.91;100.00
51468;BME280;37545;45.302;-122.946;2022-11-27T03:40:59;102136.19;;;7.93;100.00
51468;BME280;37545;45.302;-122.946;2022-11-27T03:43:42;102120.50;;;7.90;100.00
51468;BME280;37545;45.302;-122.946;2022-11-27T03:46:20;102074.66;;;7.84;100.00
51468;BME280;37545;45.302;-122.946;2022-11-27T03:48:58;102066.63;;;7.80;100.00
51468;BME280;37545;45.302;-122.946;2022-11-27T03:51:37;102087.06;;;7.76;100.00
51468;BME280;37545;45.302;-122.946;2022-11-27T03:54:15;102080.31;;;7.79;100.00
51468;BME280;37545;45.302;-122.946;2022-11-27T03:56:56;102084.78;;;7.81;100.00
51468;BME280;37545;45.302;-122.946;2022-11-27T03:59:29;102101.31;;;7.85;100.00
51468;BME280;37545;45.302;-122.946;2022-11-27T04:02:01;102117.88;;;7.88;100.00
51468;BME280;37545;45.302;-122.946;2022-11-27T04:04:30;102125.66;;;7.90;100.00
51468;BME280;37545;45.302;-122.946;2022-11-27T04:06:59;102128.34;;;7.91;100.00
51468;BME280;37545;45.302;-122.946;2022-11-27T04:09:27;102131.91;;;7.93;100.00
51468;BME280;37545;45.302;-122.946;2022-11-27T04:11:56;102133.78;;;7.96;100.00
51468;BME280;37545;45.302;-122.946;2022-11-27T04:14:25;102122.50;;;7.94;100.00
51468;BME280;37545;45.302;-122.946;2022-11-27T04:16:54;102129.44;;;7.95;100.00
51468;BME280;37545;45.302;-122.946;2022-11-27T04:19:24;102117.34;;;7.94;100.00
51468;BME280;37545;45.302;-122.946;2022-11-27T04:21:53;102122.88;;;8.00;100.00
51468;BME280;37545;45.302;-122.946;2022-11-27T04:24:22;102121.28;;;8.02;100.00
51468;BME280;37545;45.302;-122.946;2022-11-27T04:26:50;102106.81;;;8.04;100.00
51468;BME280;37545;45.302;-122.946;2022-11-27T04:29:19;102100.47;;;7.99;100.00
51468;BME280;37545;45.302;-122.946;2022-11-27T04:31:48;102089.78;;;7.93;100.00
51468;BME280;37545;45.302;-122.946;2022-11-27T04:34:16;102085.34;;;7.90;100.00
51468;BME280;37545;45.302;-122.946;2022-11-27T04:36:47;102077.13;;;7.83;100.00
51468;BME280;37545;45.302;-122.946;2022-11-27T04:39:16;102073.19;;;7.74;100.00
51468;BME280;37545;45.302;-122.946;2022-11-27T04:41:44;102065.88;;;7.67;100.00
51468;BME280;37545;45.302;-122.946;2022-11-27T04:44:13;102055.38;;;7.64;100.00
51468;BME280;37545;45.302;-122.946;2022-11-27T04:46:42;102058.84;;;7.65;100.00
51468;BME280;37545;45.302;-122.946;2022-11-27T04:49:11;102056.19;;;7.63;100.00
51468;BME280;37545;45.302;-122.946;2022-11-27T04:51:39;102062.31;;;7.65;100.00
51468;BME280;37545;45.302;-122.946;2022-11-27T04:54:10;102062.50;;;7.68;100.00
51468;BME280;37545;45.302;-122.946;2022-11-27T04:56:38;102052.38;;;7.71;100.00
51468;BME280;37545;45.302;-122.946;2022-11-27T04:59:07;102055.94;;;7.73;100.00
51468;BME280;37545;45.302;-122.946;2022-11-27T05:01:36;102046.03;;;7.80;100.00
51468;BME280;37545;45.302;-122.946;2022-11-27T05:04:04;102043.56;;;7.81;100.00
51468;BME280;37545;45.302;-122.946;2022-11-27T05:06:33;102058.31;;;7.84;100.00
51468;BME280;37545;45.302;-122.946;2022-11-27T05:09:02;102051.47;;;7.84;100.00
51468;BME280;37545;45.302;-122.946;2022-11-27T05:11:32;102052.44;;;7.86;100.00
51468;BME280;37545;45.302;-122.946;2022-11-27T05:14:01;102049.06;;;7.87;100.00
51468;BME280;37545;45.302;-122.946;2022-11-27T05:16:43;102045.59;;;7.87;100.00
51468;BME280;37545;45.302;-122.946;2022-11-27T05:19:12;102034.47;;;7.88;100.00
51468;BME280;37545;45.302;-122.946;2022-11-27T05:21:41;102041.44;;;7.89;100.00
51468;BME280;37545;45.302;-122.946;2022-11-27T05:24:10;102036.28;;;7.89;100.00
51468;BME280;37545;45.302;-122.946;2022-11-27T05:26:41;102032.34;;;7.81;100.00
51468;BME280;37545;45.302;-122.946;2022-11-27T05:29:11;102024.03;;;7.71;100.00
51468;BME280;37545;45.302;-122.946;2022-11-27T05:31:40;102019.59;;;7.69;100.00
51468;BME280;37545;45.302;-122.946;2022-11-27T05:34:09;102016.13;;;7.68;100.00
51468;BME280;37545;45.302;-122.946;2022-11-27T05:36:38;102015.03;;;7.65;100.00
51468;BME280;37545;45.302;-122.946;2022-11-27T05:39:07;102013.97;;;7.61;100.00
51468;BME280;37545;45.302;-122.946;2022-11-27T05:41:37;102010.41;;;7.59;100.00
51468;BME280;37545;45.302;-122.946;2022-11-27T05:44:10;102009.44;;;7.57;100.00
51468;BME280;37545;45.302;-122.946;2022-11-27T05:46:38;101991.44;;;7.44;100.00
51468;BME280;37545;45.302;-122.946;2022-11-27T05:49:10;101993.59;;;7.51;100.00
51468;BME280;37545;45.302;-122.946;2022-11-27T05:51:40;101991.22;;;7.54;100.00
51468;BME280;37545;45.302;-122.946;2022-11-27T05:54:09;101985.44;;;7.58;100.00
51468;BME280;37545;45.302;-122.946;2022-11-27T05:56:37;101979.69;;;7.62;100.00
51468;BME280;37545;45.302;-122.946;2022-11-27T05:59:08;101978.31;;;7.67;100.00
51468;BME280;37545;45.302;-122.946;2022-11-27T06:01:38;101968.16;;;7.70;100.00
51468;BME280;37545;45.302;-122.946;2022-11-27T06:04:06;101976.06;;;7.73;100.00
51468;BME280;37545;45.302;-122.946;2022-11-27T06:06:35;101965.88;;;7.75;100.00
51468;BME280;37545;45.302;-122.946;2022-11-27T06:09:04;101972.09;;;7.79;100.00
51468;BME280;37545;45.302;-122.946;2022-11-27T06:11:32;101966.94;;;7.79;100.00
51468;BME280;37545;45.302;-122.946;2022-11-27T06:14:01;101965.97;;;7.76;100.00
51468;BME280;37545;45.302;-122.946;2022-11-27T06:16:32;101967.75;;;7.78;100.00
51468;BME280;37545;45.302;-122.946;2022-11-27T06:19:00;101958.03;;;7.73;100.00
51468;BME280;37545;45.302;-122.946;2022-11-27T06:21:29;101956.97;;;7.70;100.00
51468;BME280;37545;45.302;-122.946;2022-11-27T06:23:58;101948.00;;;7.63;100.00
51468;BME280;37545;45.302;-122.946;2022-11-27T06:26:28;101939.00;;;7.57;100.00
51468;BME280;37545;45.302;-122.946;2022-11-27T06:28:58;101935.44;;;7.54;100.00
51468;BME280;37545;45.302;-122.946;2022-11-27T06:31:29;101930.00;;;7.50;100.00
51468;BME280;37545;45.302;-122.946;2022-11-27T06:34:00;101924.88;;;7.50;100.00
51468;BME280;37545;45.302;-122.946;2022-11-27T06:36:30;101912.88;;;7.50;100.00
51468;BME280;37545;45.302;-122.946;2022-11-27T06:38:59;101906.84;;;7.50;100.00
51468;BME280;37545;45.302;-122.946;2022-11-27T06:41:28;101902.66;;;7.52;100.00
51468;BME280;37545;45.302;-122.946;2022-11-27T06:43:58;101893.16;;;7.51;100.00
51468;BME280;37545;45.302;-122.946;2022-11-27T06:46:27;101887.28;;;7.53;100.00
51468;BME280;37545;45.302;-122.946;2022-11-27T06:48:57;101892.53;;;7.55;100.00
51468;BME280;37545;45.302;-122.946;2022-11-27T06:51:30;101885.69;;;7.55;100.00
51468;BME280;37545;45.302;-122.946;2022-11-27T06:53:59;101890.13;;;7.58;100.00
51468;BME280;37545;45.302;-122.946;2022-11-27T06:56:29;101879.16;;;7.61;100.00
51468;BME280;37545;45.302;-122.946;2022-11-27T06:58:59;101880.03;;;7.61;100.00
51468;BME280;37545;45.302;-122.946;2022-11-27T07:01:29;101871.50;;;7.62;100.00
51468;BME280;37545;45.302;-122.946;2022-11-27T07:03:59;101873.09;;;7.60;100.00
51468;BME280;37545;45.302;-122.946;2022-11-27T07:06:30;101874.88;;;7.61;100.00
51468;BME280;37545;45.302;-122.946;2022-11-27T07:08:58;101877.34;;;7.60;100.00
51468;BME280;37545;45.302;-122.946;2022-11-27T07:11:28;101868.75;;;7.59;100.00
51468;BME280;37545;45.302;-122.946;2022-11-27T07:13:58;101863.50;;;7.58;100.00
51468;BME280;37545;45.302;-122.946;2022-11-27T07:16:29;101866.78;;;7.55;99.25
51468;BME280;37545;45.302;-122.946;2022-11-27T07:18:59;101870.34;;;7.57;98.91
51468;BME280;37545;45.302;-122.946;2022-11-27T07:21:30;101860.75;;;7.54;97.23
51468;BME280;37545;45.302;-122.946;2022-11-27T07:24:00;101847.44;;;7.47;96.01
51468;BME280;37545;45.302;-122.946;2022-11-27T07:26:30;101846.44;;;7.45;96.72
51468;BME280;37545;45.302;-122.946;2022-11-27T07:28:58;101849.81;;;7.44;96.84
51468;BME280;37545;45.302;-122.946;2022-11-27T07:31:28;101842.88;;;7.43;96.80
51468;BME280;37545;45.302;-122.946;2022-11-27T07:33:57;101852.22;;;7.41;97.22
51468;BME280;37545;45.302;-122.946;2022-11-27T07:36:27;101858.25;;;7.41;98.11
51468;BME280;37545;45.302;-122.946;2022-11-27T07:38:58;101851.13;;;7.37;97.23
51468;BME280;37545;45.302;-122.946;2022-11-27T07:41:27;101856.19;;;7.36;97.88
51468;BME280;37545;45.302;-122.946;2022-11-27T07:43:55;101857.97;;;7.37;97.36
51468;BME280;37545;45.302;-122.946;2022-11-27T07:46:24;101858.56;;;7.32;97.36
51468;BME280;37545;45.302;-122.946;2022-11-27T07:48:53;101849.97;;;7.32;97.40
51468;BME280;37545;45.302;-122.946;2022-11-27T07:51:21;101851.66;;;7.31;97.57
51468;BME280;37545;45.302;-122.946;2022-11-27T07:53:50;101848.97;;;7.30;97.86
51468;BME280;37545;45.302;-122.946;2022-11-27T07:56:21;101833.84;;;7.21;99.25
51468;BME280;37545;45.302;-122.946;2022-11-27T07:58:49;101853.84;;;7.25;99.63
51468;BME280;37545;45.302;-122.946;2022-11-27T08:01:18;101845.16;;;7.23;100.00
51468;BME280;37545;45.302;-122.946;2022-11-27T08:03:47;101840.00;;;7.23;100.00
51468;BME280;37545;45.302;-122.946;2022-11-27T08:06:17;101830.22;;;7.18;100.00
51468;BME280;37545;45.302;-122.946;2022-11-27T08:08:46;101822.22;;;7.13;100.00
51468;BME280;37545;45.302;-122.946;2022-11-27T08:11:21;101827.00;;;7.07;100.00
51468;BME280;37545;45.302;-122.946;2022-11-27T08:13:54;101826.00;;;7.05;100.00
51468;BME280;37545;45.302;-122.946;2022-11-27T08:16:22;101818.22;;;7.03;100.00
51468;BME280;37545;45.302;-122.946;2022-11-27T08:18:51;101814.66;;;7.01;100.00
51468;BME280;37545;45.302;-122.946;2022-11-27T08:21:20;101807.44;;;6.96;100.00
51468;BME280;37545;45.302;-122.946;2022-11-27T08:23:49;101803.00;;;6.93;100.00
51468;BME280;37545;45.302;-122.946;2022-11-27T08:26:18;101807.25;;;6.92;100.00
51468;BME280;37545;45.302;-122.946;2022-11-27T08:28:51;101805.47;;;6.91;100.00
51468;BME280;37545;45.302;-122.946;2022-11-27T08:31:20;101794.22;;;6.89;100.00
51468;BME280;37545;45.302;-122.946;2022-11-27T08:33:50;101792.31;;;6.87;100.00
51468;BME280;37545;45.302;-122.946;2022-11-27T08:36:18;101785.25;;;6.83;100.00
51468;BME280;37545;45.302;-122.946;2022-11-27T08:38:47;101786.72;;;6.79;100.00
51468;BME280;37545;45.302;-122.946;2022-11-27T08:41:16;101784.97;;;6.78;100.00
51468;BME280;37545;45.302;-122.946;2022-11-27T08:43:47;101784.84;;;6.77;100.00
51468;BME280;37545;45.302;-122.946;2022-11-27T08:46:15;101778.81;;;6.76;100.00
51468;BME280;37545;45.302;-122.946;2022-11-27T08:48:44;101776.25;;;6.76;100.00
51468;BME280;37545;45.302;-122.946;2022-11-27T08:51:21;101775.44;;;6.77;100.00
51468;BME280;37545;45.302;-122.946;2022-11-27T08:53:51;101772.00;;;6.77;100.00
51468;BME280;37545;45.302;-122.946;2022-11-27T08:56:21;101763.88;;;6.70;100.00
51468;BME280;37545;45.302;-122.946;2022-11-27T08:59:05;101761.44;;;6.72;100.00
51468;BME280;37545;45.302;-122.946;2022-11-27T09:01:34;101757.16;;;6.72;100.00
51468;BME280;37545;45.302;-122.946;2022-11-27T09:04:03;101743.91;;;6.66;100.00
51468;BME280;37545;45.302;-122.946;2022-11-27T09:06:32;101740.78;;;6.57;100.00
51468;BME280;37545;45.302;-122.946;2022-11-27T09:09:03;101745.25;;;6.60;100.00
51468;BME280;37545;45.302;-122.946;2022-11-27T09:11:33;101730.59;;;6.59;100.00
51468;BME280;37545;45.302;-122.946;2022-11-27T09:14:04;101729.81;;;6.60;100.00
51468;BME280;37545;45.302;-122.946;2022-11-27T09:16:34;101721.84;;;6.55;100.00
51468;BME280;37545;45.302;-122.946;2022-11-27T09:19:02;101713.19;;;6.55;100.00
51468;BME280;37545;45.302;-122.946;2022-11-27T09:21:31;101698.31;;;6.49;100.00
51468;BME280;37545;45.302;-122.946;2022-11-27T09:24:00;101700.97;;;6.50;100.00
51468;BME280;37545;45.302;-122.946;2022-11-27T09:26:29;101708.69;;;6.50;100.00
51468;BME280;37545;45.302;-122.946;2022-11-27T09:28:59;101706.03;;;6.49;100.00
51468;BME280;37545;45.302;-122.946;2022-11-27T09:31:33;101694.84;;;6.48;100.00
51468;BME280;37545;45.302;-122.946;2022-11-27T09:34:02;101674.59;;;6.40;100.00
51468;BME280;37545;45.302;-122.946;2022-11-27T09:36:31;101678.16;;;6.42;100.00
51468;BME280;37545;45.302;-122.946;2022-11-27T09:39:00;101672.09;;;6.41;100.00
51468;BME280;37545;45.302;-122.946;2022-11-27T09:41:44;101661.06;;;6.42;100.00
51468;BME280;37545;45.302;-122.946;2022-11-27T09:44:25;101661.16;;;6.44;100.00
51468;BME280;37545;45.302;-122.946;2022-11-27T09:47:00;101658.59;;;6.44;100.00
51468;BME280;37545;45.302;-122.946;2022-11-27T09:49:34;101650.75;;;6.42;100.00
51468;BME280;37545;45.302;-122.946;2022-11-27T09:52:05;101657.78;;;6.45;100.00
51468;BME280;37545;45.302;-122.946;2022-11-27T09:54:39;101648.56;;;6.48;100.00
51468;BME280;37545;45.302;-122.946;2022-11-27T09:57:14;101649.63;;;6.52;100.00
51468;BME280;37545;45.302;-122.946;2022-11-27T09:59:48;101640.22;;;6.53;100.00
51468;BME280;37545;45.302;-122.946;2022-11-27T10:02:25;101639.56;;;6.55;100.00
51468;BME280;37545;45.302;-122.946;2022-11-27T10:04:55;101644.06;;;6.59;100.00
51468;BME280;37545;45.302;-122.946;2022-11-27T10:07:32;101643.28;;;6.60;100.00
51468;BME280;37545;45.302;-122.946;2022-11-27T10:10:15;101639.00;;;6.61;100.00
51468;BME280;37545;45.302;-122.946;2022-11-27T10:12:54;101628.72;;;6.61;100.00
51468;BME280;37545;45.302;-122.946;2022-11-27T10:15:35;101625.34;;;6.62;100.00
51468;BME280;37545;45.302;-122.946;2022-11-27T10:18:12;101634.03;;;6.64;100.00
51468;BME280;37545;45.302;-122.946;2022-11-27T10:20:43;101622.78;;;6.62;100.00
51468;BME280;37545;45.302;-122.946;2022-11-27T10:23:23;101613.47;;;6.64;100.00
51468;BME280;37545;45.302;-122.946;2022-11-27T10:25:56;101598.75;;;6.61;100.00
51468;BME280;37545;45.302;-122.946;2022-11-27T10:28:27;101605.59;;;6.61;100.00
51468;BME280;37545;45.302;-122.946;2022-11-27T10:31:02;101609.03;;;6.61;100.00
51468;BME280;37545;45.302;-122.946;2022-11-27T10:33:39;101599.63;;;6.62;100.00
51468;BME280;37545;45.302;-122.946;2022-11-27T10:36:13;101587.59;;;6.61;100.00
51468;BME280;37545;45.302;-122.946;2022-11-27T10:38:43;101584.91;;;6.59;100.00
51468;BME280;37545;45.302;-122.946;2022-11-27T10:41:16;101584.91;;;6.59;100.00
51468;BME280;37545;45.302;-122.946;2022-11-27T10:43:44;101578.72;;;6.56;100.00
51468;BME280;37545;45.302;-122.946;2022-11-27T10:46:17;101568.50;;;6.57;100.00
51468;BME280;37545;45.302;-122.946;2022-11-27T10:48:51;101575.16;;;6.54;100.00
51468;BME280;37545;45.302;-122.946;2022-11-27T10:51:21;101579.50;;;6.55;100.00
51468;BME280;37545;45.302;-122.946;2022-11-27T10:53:52;101580.13;;;6.50;100.00
51468;BME280;37545;45.302;-122.946;2022-11-27T10:56:40;101567.44;;;6.54;100.00
51468;BME280;37545;45.302;-122.946;2022-11-27T10:59:12;101564.88;;;6.54;100.00
51468;BME280;37545;45.302;-122.946;2022-11-27T11:01:44;101562.22;;;6.52;100.00
51468;BME280;37545;45.302;-122.946;2022-11-27T11:04:19;101557.94;;;6.53;100.00
51468;BME280;37545;45.302;-122.946;2022-11-27T11:06:48;101552.13;;;6.55;100.00
51468;BME280;37545;45.302;-122.946;2022-11-27T11:09:18;101544.31;;;6.54;100.00
51468;BME280;37545;45.302;-122.946;2022-11-27T11:11:49;101538.81;;;6.47;100.00
51468;BME280;37545;45.302;-122.946;2022-11-27T11:14:19;101541.47;;;6.49;100.00
51468;BME280;37545;45.302;-122.946;2022-11-27T11:16:49;101536.44;;;6.50;100.00
51468;BME280;37545;45.302;-122.946;2022-11-27T11:19:24;101529.41;;;6.48;100.00
51468;BME280;37545;45.302;-122.946;2022-11-27T11:21:53;101523.00;;;6.41;100.00
51468;BME280;37545;45.302;-122.946;2022-11-27T11:24:24;101510.81;;;6.37;100.00
51468;BME280;37545;45.302;-122.946;2022-11-27T11:26:56;101509.88;;;6.37;100.00
51468;BME280;37545;45.302;-122.946;2022-11-27T11:29:30;101490.13;;;6.36;100.00
51468;BME280;37545;45.302;-122.946;2022-11-27T11:32:06;101490.22;;;6.22;100.00
51468;BME280;37545;45.302;-122.946;2022-11-27T11:34:41;101481.78;;;6.25;100.00
51468;BME280;37545;45.302;-122.946;2022-11-27T11:37:20;101475.16;;;6.28;100.00
51468;BME280;37545;45.302;-122.946;2022-11-27T11:39:55;101472.59;;;6.28;100.00
51468;BME280;37545;45.302;-122.946;2022-11-27T11:42:26;101462.03;;;6.24;100.00
51468;BME280;37545;45.302;-122.946;2022-11-27T11:45:04;101449.97;;;6.23;100.00
51468;BME280;37545;45.302;-122.946;2022-11-27T11:47:33;101444.84;;;6.23;100.00
51468;BME280;37545;45.302;-122.946;2022-11-27T11:52:51;101443.19;;;6.23;100.00
51468;BME280;37545;45.302;-122.946;2022-11-27T11:55:29;101438.03;;;6.23;100.00
51468;BME280;37545;45.302;-122.946;2022-11-27T11:58:20;101426.69;;;6.20;100.00
51468;BME280;37545;45.302;-122.946;2022-11-27T12:03:58;101419.84;;;6.20;100.00
51468;BME280;37545;45.302;-122.946;2022-11-27T12:06:40;101420.03;;;6.23;100.00
51468;BME280;37545;45.302;-122.946;2022-11-27T12:09:23;101414.00;;;6.23;100.00
51468;BME280;37545;45.302;-122.946;2022-11-27T12:11:59;101412.34;;;6.23;100.00
51468;BME280;37545;45.302;-122.946;2022-11-27T12:14:40;101403.91;;;6.26;100.00
51468;BME280;37545;45.302;-122.946;2022-11-27T12:17:22;101403.03;;;6.25;100.00
51468;BME280;37545;45.302;-122.946;2022-11-27T12:20:18;101402.94;;;6.24;100.00
51468;BME280;37545;45.302;-122.946;2022-11-27T12:23:21;101391.59;;;6.20;100.00
51468;BME280;37545;45.302;-122.946;2022-11-27T12:26:01;101385.47;;;6.18;100.00
51468;BME280;37545;45.302;-122.946;2022-11-27T12:28:47;101375.91;;;6.16;100.00
51468;BME280;37545;45.302;-122.946;2022-11-27T12:31:28;101366.34;;;6.13;100.00
51468;BME280;37545;45.302;-122.946;2022-11-27T12:34:06;101370.59;;;6.13;100.00
51468;BME280;37545;45.302;-122.946;2022-11-27T12:36:54;101359.78;;;6.18;100.00
51468;BME280;37545;45.302;-122.946;2022-11-27T12:39:32;101369.38;;;6.21;100.00
51468;BME280;37545;45.302;-122.946;2022-11-27T12:42:15;101367.94;;;6.11;100.00
51468;BME280;37545;45.302;-122.946;2022-11-27T12:44:53;101359.44;;;6.12;100.00
51468;BME280;37545;45.302;-122.946;2022-11-27T12:47:25;101353.44;;;6.12;100.00
51468;BME280;37545;45.302;-122.946;2022-11-27T12:49:58;101342.78;;;6.05;100.00
51468;BME280;37545;45.302;-122.946;2022-11-27T12:52:36;101336.22;;;6.11;100.00